Time;durP1;ratioP1;P1;durP2;ratioP2;P2;SDS_P1;SDS_P2;PMS_P1;PMS_P2;Temp;Humidity;BMP_temperature;BMP_pressure;BME280_temperature;BME280_humidity;BME280_pressure;Samples;Min_cycle;Max_cycle;Signal;HPM_P1;HPM_P2
2023/10/25 00:00:12;;;;;;;18.45;8.23;;;512.30;2380.80;;;;;;5107854;28;20052;-75
2023/10/25 00:02:37;;;;;;;19.08;6.28;;;512.30;2380.80;;;;;;5107613;28;20036;-75
2023/10/25 00:05:03;;;;;;;30.52;6.63;;;512.30;2380.80;;;;;;5105341;28;20028;-76
2023/10/25 00:07:29;;;;;;;27.42;6.85;;;512.30;2380.80;;;;;;5092782;28;20413;-76
2023/10/25 00:09:55;;;;;;;18.02;6.65;;;512.20;2380.80;;;;;;5094939;28;20023;-75
2023/10/25 00:12:23;;;;;;;18.42;6.55;;;512.20;2380.80;;;;;;5112678;28;20052;-76
2023/10/25 00:14:49;;;;;;;20.73;7.32;;;512.20;2380.80;;;;;;5113290;28;20020;-75
2023/10/25 00:17:15;;;;;;;25.38;7.25;;;512.20;2380.80;;;;;;5113338;28;20145;-75
2023/10/25 00:19:40;;;;;;;21.90;6.88;;;512.20;2380.80;;;;;;5113413;28;20016;-77
2023/10/25 00:22:06;;;;;;;18.27;6.75;;;512.20;2380.80;;;;;;5113082;28;20111;-76
2023/10/25 00:24:32;;;;;;;21.95;5.88;;;512.10;2380.80;;;;;;5115641;28;20019;-76
2023/10/25 00:26:57;;;;;;;27.10;7.18;;;512.00;2380.80;;;;;;5117219;27;20369;-76
2023/10/25 00:29:24;;;;;;;22.98;6.93;;;512.00;2380.80;;;;;;5117177;28;20376;-76
2023/10/25 00:31:49;;;;;;;26.88;7.78;;;487.30;2380.80;;;;;;5117314;28;20353;-77
2023/10/25 00:34:15;;;;;;;26.38;7.00;;;487.30;2380.80;;;;;;5117134;28;20033;-76
2023/10/25 00:36:41;;;;;;;28.20;7.95;;;487.30;2380.80;;;;;;5116842;28;20027;-76
2023/10/25 00:39:06;;;;;;;35.42;7.03;;;512.10;2380.80;;;;;;5116978;28;20529;-76
2023/10/25 00:41:32;;;;;;;30.58;8.75;;;512.00;2380.80;;;;;;5116719;28;20023;-76
2023/10/25 00:43:57;;;;;;;41.83;8.38;;;512.10;2380.80;;;;;;5116741;28;20031;-76
2023/10/25 00:46:25;;;;;;;30.92;8.00;;;487.30;2380.80;;;;;;5116822;28;20449;-75
2023/10/25 00:48:55;;;;;;;29.67;9.45;;;487.00;2380.80;;;;;;5116667;28;20043;-75
2023/10/25 00:51:22;;;;;;;35.78;10.10;;;;;;;;;;5110245;28;20052;-76
2023/10/25 00:53:53;;;;;;;26.67;8.38;;;486.40;2380.80;;;;;;5096164;28;20359;-76
2023/10/25 00:56:21;;;;;;;22.85;7.85;;;;;;;;;;5096421;28;20097;-76
2023/10/25 00:58:50;;;;;;;29.63;8.60;;;461.10;2380.80;;;;;;5096107;28;20020;-76
2023/10/25 01:01:18;;;;;;;24.83;8.73;;;461.10;2380.80;;;;;;5077750;28;20567;-76
2023/10/25 01:03:43;;;;;;;28.42;9.30;;;460.80;2380.80;;;;;;5096015;28;20485;-76
2023/10/25 01:06:10;;;;;;;23.50;8.13;;;460.80;2380.80;;;;;;5077906;28;20063;-77
2023/10/25 01:08:36;;;;;;;27.50;10.10;;;460.80;2380.80;;;;;;5095736;28;20020;-76
2023/10/25 01:11:01;;;;;;;28.10;7.72;;;460.80;2380.80;;;;;;5095754;28;20560;-76
2023/10/25 01:13:27;;;;;;;23.02;8.13;;;436.10;2355.20;;;;;;5095960;28;20025;-76
2023/10/25 01:15:53;;;;;;;25.13;8.68;;;436.10;2355.20;;;;;;5095686;28;20024;-76
2023/10/25 01:18:19;;;;;;;20.63;7.28;;;436.10;2355.20;;;;;;5095896;28;20031;-76
2023/10/25 01:20:45;;;;;;;21.85;7.38;;;436.10;2355.20;;;;;;5095859;28;20040;-76
2023/10/25 01:23:11;;;;;;;22.17;7.63;;;436.10;2355.20;;;;;;5095537;28;20085;-76
2023/10/25 01:25:40;;;;;;;30.52;9.82;;;436.10;2355.20;;;;;;5095587;28;20024;-76
2023/10/25 01:28:06;;;;;;;34.80;7.85;;;436.10;2355.20;;;;;;5095710;28;20020;-76
2023/10/25 01:30:32;;;;;;;26.85;8.13;;;436.10;2355.20;;;;;;5095500;28;20020;-76
2023/10/25 01:32:58;;;;;;;24.20;7.25;;;436.10;2355.20;;;;;;5095471;28;20465;-76
2023/10/25 01:35:25;;;;;;;28.00;7.97;;;460.80;2380.80;;;;;;5076838;28;20038;-76
2023/10/25 01:37:50;;;;;;;24.38;7.15;;;436.10;2355.20;;;;;;5095385;28;20017;-76
2023/10/25 01:40:16;;;;;;;24.63;7.85;;;436.10;2355.20;;;;;;5095493;28;20085;-76
2023/10/25 01:42:43;;;;;;;30.27;7.53;;;436.10;2355.20;;;;;;5094997;28;20065;-75
2023/10/25 01:45:09;;;;;;;32.65;7.57;;;460.80;2380.80;;;;;;5095100;28;20462;-75
2023/10/25 01:47:35;;;;;;;16.92;6.95;;;436.10;2355.20;;;;;;5095207;28;20032;-76
2023/10/25 01:50:00;;;;;;;31.55;7.68;;;460.80;2380.80;;;;;;5095375;28;20534;-76
2023/10/25 01:52:26;;;;;;;24.90;7.68;;;460.80;2380.80;;;;;;5110342;28;20059;-76
2023/10/25 01:54:52;;;;;;;20.92;6.68;;;460.80;2380.80;;;;;;5115376;28;20507;-76
2023/10/25 01:57:18;;;;;;;32.30;7.13;;;436.10;2355.20;;;;;;5115567;28;20377;-77
2023/10/25 01:59:44;;;;;;;23.38;7.13;;;460.80;2380.80;;;;;;5115445;28;20032;-77
2023/10/25 02:02:13;;;;;;;25.52;7.63;;;460.80;2380.80;;;;;;5115431;28;20040;-75
2023/10/25 02:04:38;;;;;;;22.80;7.70;;;460.90;2380.80;;;;;;5115103;28;20016;-76
2023/10/25 02:07:04;;;;;;;23.65;8.18;;;460.90;2380.80;;;;;;5115066;28;20028;-75
2023/10/25 02:09:31;;;;;;;21.88;8.40;;;460.90;2380.80;;;;;;5115235;28;20046;-75
2023/10/25 02:11:56;;;;;;;25.90;9.80;;;460.90;2380.80;;;;;;5115188;28;20492;-75
2023/10/25 02:14:22;;;;;;;29.05;12.18;;;460.90;2380.80;;;;;;5115234;28;20027;-75
2023/10/25 02:16:49;;;;;;;30.35;12.32;;;460.90;2380.80;;;;;;5114983;28;20023;-75
2023/10/25 02:19:15;;;;;;;30.60;11.23;;;461.00;2380.80;;;;;;5115047;28;20016;-75
2023/10/25 02:21:41;;;;;;;32.00;9.68;;;461.00;2380.80;;;;;;5115053;28;20456;-75
2023/10/25 02:24:10;;;;;;;28.17;8.43;;;461.00;2380.80;;;;;;5114860;28;20055;-75
2023/10/25 02:26:36;;;;;;;27.27;8.60;;;461.00;2380.80;;;;;;5114823;28;20023;-75
2023/10/25 02:29:02;;;;;;;22.73;7.07;;;461.10;2380.80;;;;;;5096415;28;20034;-75
2023/10/25 02:31:28;;;;;;;17.10;7.13;;;461.00;2380.80;;;;;;5114778;28;20027;-75
2023/10/25 02:33:53;;;;;;;28.80;6.75;;;461.00;2380.80;;;;;;5114623;28;20028;-75
2023/10/25 02:36:19;;;;;;;22.55;6.90;;;461.10;2380.80;;;;;;5114669;28;20045;-75
2023/10/25 02:38:48;;;;;;;17.38;7.00;;;461.10;2380.80;;;;;;5114395;28;20019;-76
2023/10/25 02:41:14;;;;;;;23.23;6.25;;;461.20;2380.80;;;;;;5114501;28;20031;-75
2023/10/25 02:43:39;;;;;;;27.27;8.40;;;461.20;2380.80;;;;;;5114736;28;20076;-76
2023/10/25 02:46:07;;;;;;;26.13;7.43;;;461.30;2380.80;;;;;;5114010;28;20020;-76
2023/10/25 02:48:33;;;;;;;24.70;7.13;;;461.30;2380.80;;;;;;5116310;28;20080;-76
2023/10/25 02:51:00;;;;;;;35.10;7.53;;;461.30;2380.80;;;;;;5116958;28;20043;-76
2023/10/25 02:53:25;;;;;;;24.33;7.80;;;461.30;2380.80;;;;;;5117275;28;20108;-76
2023/10/25 02:55:57;;;;;;;36.60;7.78;;;461.30;2380.80;;;;;;5114332;28;20480;-76
2023/10/25 02:58:23;;;;;;;25.02;7.55;;;461.40;2380.80;;;;;;5114474;28;20023;-77
2023/10/25 03:00:49;;;;;;;34.47;9.40;;;461.40;2380.80;;;;;;5096155;28;20020;-76
2023/10/25 03:03:15;;;;;;;31.20;8.38;;;461.40;2380.80;;;;;;5095155;28;20043;-76
2023/10/25 03:05:41;;;;;;;23.23;8.68;;;461.50;2380.80;;;;;;5113419;28;20022;-76
2023/10/25 03:08:06;;;;;;;23.60;7.47;;;461.30;2380.80;;;;;;5113366;28;20166;-76
2023/10/25 03:10:32;;;;;;;32.53;8.00;;;461.30;2380.80;;;;;;5113451;28;20031;-75
2023/10/25 03:12:59;;;;;;;26.98;8.63;;;461.30;2380.80;;;;;;5113535;28;20027;-76
2023/10/25 03:15:25;;;;;;;22.90;7.95;;;461.30;2380.80;;;;;;5113371;28;20027;-76
2023/10/25 03:17:51;;;;;;;23.08;7.88;;;461.30;2380.80;;;;;;5113406;28;20057;-76
2023/10/25 03:20:17;;;;;;;26.25;7.90;;;461.40;2380.80;;;;;;5113945;28;20373;-76
2023/10/25 03:22:42;;;;;;;29.88;8.20;;;461.20;2380.80;;;;;;5113813;28;20498;-76
2023/10/25 03:25:08;;;;;;;28.65;8.65;;;461.20;2380.80;;;;;;5113544;28;20054;-76
2023/10/25 03:27:34;;;;;;;22.80;8.20;;;461.10;2380.80;;;;;;5113128;28;20177;-76
2023/10/25 03:30:00;;;;;;;23.55;7.90;;;461.20;2380.80;;;;;;5113398;28;20581;-76
2023/10/25 03:32:26;;;;;;;23.13;7.85;;;461.10;2380.80;;;;;;5113737;28;20510;-76
2023/10/25 03:34:51;;;;;;;42.08;9.40;;;461.20;2380.80;;;;;;5113499;28;20030;-76
2023/10/25 03:37:17;;;;;;;35.58;8.23;;;461.10;2380.80;;;;;;5113620;28;20072;-76
2023/10/25 03:39:43;;;;;;;28.92;7.80;;;461.20;2380.80;;;;;;5113388;28;20503;-76
2023/10/25 03:42:09;;;;;;;26.13;7.28;;;461.10;2380.80;;;;;;5113454;28;20032;-76
2023/10/25 03:44:35;;;;;;;28.17;8.60;;;461.10;2380.80;;;;;;5113461;28;20016;-75
2023/10/25 03:47:00;;;;;;;22.80;5.25;;;461.10;2380.80;;;;;;5113449;28;20038;-76
2023/10/25 03:49:26;;;;;;;22.48;5.82;;;461.10;2380.80;;;;;;5113365;28;20480;-76
2023/10/25 03:51:52;;;;;;;26.35;6.53;;;461.10;2380.80;;;;;;5113157;28;20050;-76
2023/10/25 03:54:18;;;;;;;25.00;5.38;;;461.10;2380.80;;;;;;5105819;28;20115;-76
2023/10/25 03:56:44;;;;;;;18.63;5.15;;;461.30;2380.80;;;;;;5113515;28;20537;-76
2023/10/25 03:59:11;;;;;;;17.95;5.28;;;461.10;2380.80;;;;;;5117010;28;20425;-76
2023/10/25 04:01:38;;;;;;;11.45;5.05;;;461.10;2380.80;;;;;;5103417;28;20040;-76
2023/10/25 04:04:04;;;;;;;17.40;5.38;;;461.00;2380.80;;;;;;5117570;28;20015;-76
2023/10/25 04:06:30;;;;;;;15.43;5.53;;;461.00;2380.80;;;;;;5117638;28;20020;-75
2023/10/25 04:08:55;;;;;;;22.35;5.63;;;461.00;2380.80;;;;;;5116965;28;20019;-76
2023/10/25 04:11:21;;;;;;;15.85;6.07;;;461.00;2380.80;;;;;;5117438;28;20121;-76
2023/10/25 04:13:47;;;;;;;27.55;5.82;;;460.90;2380.80;;;;;;5117164;28;20024;-76
2023/10/25 04:16:12;;;;;;;29.27;6.90;;;460.80;2380.80;;;;;;5117436;28;20008;-76
2023/10/25 04:18:38;;;;;;;23.40;7.07;;;460.80;2380.80;;;;;;5117308;28;20035;-76
2023/10/25 04:21:10;;;;;;;23.38;7.10;;;460.80;2380.80;;;;;;5117216;28;20039;-75
2023/10/25 04:23:35;;;;;;;21.58;7.28;;;436.10;2355.20;;;;;;5110306;28;20032;-76
2023/10/25 04:26:09;;;;;;;22.30;7.90;;;460.80;2380.80;;;;;;5098557;28;20032;-76
2023/10/25 04:28:37;;;;;;;20.08;7.70;;;460.80;2380.80;;;;;;5116998;28;20024;-76
2023/10/25 04:31:03;;;;;;;31.63;8.95;;;460.80;2380.80;;;;;;5117118;28;20030;-76
2023/10/25 04:33:29;;;;;;;25.48;8.32;;;436.10;2355.20;;;;;;5113924;28;20482;-76
2023/10/25 04:35:56;;;;;;;20.15;8.23;;;436.00;2355.20;;;;;;5106135;28;20020;-75
2023/10/25 04:38:23;;;;;;;18.77;7.28;;;435.90;2073.60;;;;;;5113733;28;20107;-76
2023/10/25 04:40:50;;;;;;;32.65;8.32;;;435.80;2329.60;;;;;;5116680;28;20372;-76
2023/10/25 04:43:17;;;;;;;26.63;7.95;;;435.90;2355.20;;;;;;5116713;28;20061;-76
2023/10/25 04:45:43;;;;;;;27.25;8.15;;;436.10;2355.20;;;;;;5116350;28;20020;-76
2023/10/25 04:48:08;;;;;;;15.82;6.63;;;436.00;2355.20;;;;;;5115859;28;20028;-76
2023/10/25 04:50:36;;;;;;;18.40;6.78;;;436.10;2355.20;;;;;;5107513;28;20098;-75
2023/10/25 04:53:02;;;;;;;18.30;7.07;;;460.80;2380.80;;;;;;5116436;28;20039;-76
2023/10/25 04:55:34;;;;;;;22.98;6.97;;;460.80;2380.80;;;;;;5110328;27;20028;-76
2023/10/25 04:58:00;;;;;;;18.83;6.65;;;461.00;2380.80;;;;;;5103802;28;20024;-75
2023/10/25 05:00:27;;;;;;;31.02;7.55;;;460.90;2380.80;;;;;;5107622;28;20048;-76
2023/10/25 05:02:53;;;;;;;21.05;7.55;;;460.80;2380.80;;;;;;5096961;28;20040;-76
2023/10/25 05:05:19;;;;;;;23.27;7.38;;;436.10;2355.20;;;;;;5106210;28;20381;-76
2023/10/25 05:07:46;;;;;;;19.85;6.60;;;436.10;2355.20;;;;;;5098617;28;20424;-76
2023/10/25 05:10:12;;;;;;;24.90;7.65;;;436.00;2355.20;;;;;;5085190;28;20508;-76
2023/10/25 05:12:42;;;;;;;26.38;7.95;;;436.10;2355.20;;;;;;5106707;28;20102;-76
2023/10/25 05:15:14;;;;;;;22.15;6.40;;;436.10;2355.20;;;;;;5097366;28;20031;-75
2023/10/25 05:17:41;;;;;;;31.50;6.05;;;436.10;2355.20;;;;;;5107196;28;20016;-76
2023/10/25 05:20:08;;;;;;;26.27;6.68;;;436.10;2355.20;;;;;;5106371;28;20082;-77
2023/10/25 05:22:38;;;;;;;23.85;6.95;;;436.10;2355.20;;;;;;5099337;28;20563;-78
2023/10/25 05:25:06;;;;;;;29.75;8.10;;;436.10;2355.20;;;;;;5108601;28;20059;-78
2023/10/25 05:27:33;;;;;;;20.85;7.07;;;436.00;2355.20;;;;;;5088772;28;20054;-76
2023/10/25 05:30:03;;;;;;;26.05;7.28;;;436.00;2355.20;;;;;;5109137;28;20041;-79
2023/10/25 05:32:33;;;;;;;23.52;7.22;;;435.90;2355.20;;;;;;5106220;28;20382;-78
2023/10/25 05:35:03;;;;;;;28.42;8.95;;;435.90;2355.20;;;;;;5109658;28;20024;-77
2023/10/25 05:37:30;;;;;;;20.65;7.05;;;435.80;2355.20;;;;;;5089097;28;20085;-77
2023/10/25 05:39:56;;;;;;;24.02;7.18;;;435.80;2355.20;;;;;;5108762;28;20015;-77
2023/10/25 05:42:24;;;;;;;19.45;6.18;;;435.80;2355.20;;;;;;5098404;28;20053;-75
2023/10/25 05:44:56;;;;;;;19.52;6.45;;;435.80;2355.20;;;;;;5105793;28;20103;-76
2023/10/25 05:47:26;;;;;;;24.63;5.95;;;435.80;2355.20;;;;;;5106116;28;20031;-76
2023/10/25 05:49:52;;;;;;;19.42;7.30;;;435.90;2355.20;;;;;;5103525;28;20024;-75
2023/10/25 05:52:18;;;;;;;18.02;5.35;;;436.00;2355.20;;;;;;5086224;28;20106;-75
2023/10/25 05:54:44;;;;;;;16.23;5.53;;;436.10;2355.20;;;;;;5097347;28;20031;-75
2023/10/25 05:57:12;;;;;;;16.15;6.28;;;436.10;2355.20;;;;;;5108588;28;20028;-75
2023/10/25 05:59:38;;;;;;;12.63;4.20;;;436.10;2355.20;;;;;;5104485;28;20110;-75
2023/10/25 06:02:13;;;;;;;18.52;6.05;;;460.80;2380.80;;;;;;5101286;28;20089;-75
2023/10/25 06:04:40;;;;;;;18.83;4.53;;;460.90;2380.80;;;;;;5107888;28;20020;-76
2023/10/25 06:07:08;;;;;;;20.05;4.50;;;461.00;2380.80;;;;;;5110936;28;20047;-75
2023/10/25 06:09:34;;;;;;;14.80;4.85;;;461.00;2380.80;;;;;;5101399;28;20026;-76
2023/10/25 06:12:00;;;;;;;17.42;4.40;;;460.90;2380.80;;;;;;5100767;28;20078;-75
2023/10/25 06:14:27;;;;;;;13.05;3.53;;;461.10;2380.80;;;;;;5105635;28;20032;-75
2023/10/25 06:16:53;;;;;;;21.08;4.95;;;461.00;2380.80;;;;;;5091270;28;20032;-75
2023/10/25 06:19:19;;;;;;;20.83;5.50;;;461.10;2380.80;;;;;;5099158;28;20034;-75
2023/10/25 06:21:45;;;;;;;18.67;5.10;;;461.10;2380.80;;;;;;5104753;28;20040;-75
2023/10/25 06:24:10;;;;;;;20.60;5.05;;;461.10;2380.80;;;;;;5107922;28;20099;-76
2023/10/25 06:26:36;;;;;;;15.05;4.18;;;461.10;2380.80;;;;;;5105744;28;20024;-76
2023/10/25 06:29:02;;;;;;;14.23;3.88;;;461.30;2380.80;;;;;;5100437;28;20031;-76
2023/10/25 06:31:27;;;;;;;17.33;4.80;;;461.20;2380.80;;;;;;5101372;28;20111;-75
2023/10/25 06:33:53;;;;;;;17.13;5.20;;;461.40;2380.80;;;;;;5104959;28;20039;-75
2023/10/25 06:36:20;;;;;;;15.20;5.40;;;461.50;2380.80;;;;;;5105209;28;20024;-75
2023/10/25 06:38:46;;;;;;;15.65;4.65;;;461.60;2380.80;;;;;;5103959;28;20024;-75
2023/10/25 06:41:19;;;;;;;16.13;4.53;;;461.60;2380.80;;;;;;5099919;28;20141;-75
2023/10/25 06:43:45;;;;;;;14.52;4.68;;;486.40;2380.80;;;;;;5103040;28;20028;-75
2023/10/25 06:46:12;;;;;;;14.63;5.35;;;486.40;2380.80;;;;;;5099195;28;20063;-74
2023/10/25 06:48:38;;;;;;;14.60;4.15;;;486.40;2380.80;;;;;;5107710;28;20024;-74
2023/10/25 06:51:05;;;;;;;16.55;6.10;;;486.50;2380.80;;;;;;5100859;28;20071;-75
2023/10/25 06:53:31;;;;;;;13.63;4.50;;;486.60;2380.80;;;;;;5101314;28;20028;-76
2023/10/25 06:55:57;;;;;;;18.27;4.40;;;486.60;2380.80;;;;;;5095470;28;20036;-75
2023/10/25 06:58:23;;;;;;;7.38;2.95;;;486.60;2380.80;;;;;;5101060;28;20109;-76
2023/10/25 07:00:50;;;;;;;6.55;2.75;;;486.70;2380.80;;;;;;5106435;28;20512;-75
2023/10/25 07:03:20;;;;;;;8.23;3.08;;;486.90;2380.80;;;;;;5102737;28;20557;-75
2023/10/25 07:05:48;;;;;;;7.45;2.42;;;486.80;2380.80;;;;;;5103650;28;20024;-76
2023/10/25 07:08:14;;;;;;;7.93;2.42;;;486.90;2380.80;;;;;;5102914;28;20089;-75
2023/10/25 07:10:40;;;;;;;5.18;2.50;;;487.00;2380.80;;;;;;5078158;28;20350;-75
2023/10/25 07:13:06;;;;;;;11.73;2.28;;;487.10;2380.80;;;;;;5105953;28;20070;-75
2023/10/25 07:15:32;;;;;;;8.50;2.47;;;487.10;2380.80;;;;;;5101067;28;20054;-75
2023/10/25 07:17:58;;;;;;;9.35;2.00;;;487.20;2380.80;;;;;;5099630;28;20023;-75
2023/10/25 07:20:24;;;;;;;13.02;3.15;;;487.30;2380.80;;;;;;5097873;28;20435;-76
2023/10/25 07:22:50;;;;;;;11.32;2.42;;;512.00;2380.80;;;;;;5100712;28;20071;-75
2023/10/25 07:25:16;;;;;;;13.63;2.67;;;512.10;2380.80;;;;;;5085369;28;20023;-75
2023/10/25 07:27:42;;;;;;;10.80;2.33;;;512.30;2380.80;;;;;;5097330;28;20043;-74
2023/10/25 07:30:08;;;;;;;8.10;2.22;;;512.50;2380.80;;;;;;5104326;28;20382;-74
2023/10/25 07:32:35;;;;;;;8.18;2.42;;;512.70;2380.80;;;;;;5101736;28;20063;-76
2023/10/25 07:35:02;;;;;;;8.20;2.15;;;537.70;2406.40;;;;;;5099031;28;20115;-76
2023/10/25 07:37:28;;;;;;;5.80;1.95;;;537.70;2406.40;;;;;;5104249;28;20031;-76
2023/10/25 07:39:54;;;;;;;19.33;2.60;;;537.90;2406.40;;;;;;5101206;28;20028;-75
2023/10/25 07:42:20;;;;;;;6.22;1.95;;;537.90;2406.40;;;;;;5101139;28;21498;-76
2023/10/25 07:44:45;;;;;;;6.15;1.73;;;537.90;2406.40;;;;;;5103857;28;20020;-76
2023/10/25 07:47:11;;;;;;;10.52;1.80;;;537.90;2406.40;;;;;;5104300;28;20017;-75
2023/10/25 07:49:37;;;;;;;8.00;2.88;;;537.90;2406.40;;;;;;5101034;28;20086;-75
2023/10/25 07:52:06;;;;;;;10.02;2.95;;;537.80;2406.40;;;;;;5106861;28;20048;-74
2023/10/25 07:54:32;;;;;;;11.68;3.50;;;537.80;2406.40;;;;;;5101696;28;20058;-75
2023/10/25 07:56:58;;;;;;;5.40;2.47;;;537.70;2406.40;;;;;;5097457;28;20024;-75
2023/10/25 07:59:24;;;;;;;10.55;2.22;;;537.70;2406.40;;;;;;5096008;28;20481;-75
2023/10/25 08:01:51;;;;;;;4.22;1.90;;;537.60;2406.40;;;;;;5096603;28;20050;-74
2023/10/25 08:04:18;;;;;;;3.67;1.40;;;537.60;2406.40;;;;;;5103065;28;20035;-75
2023/10/25 08:06:44;;;;;;;7.97;1.58;;;537.60;2406.40;;;;;;5106341;28;20028;-75
2023/10/25 08:09:10;;;;;;;4.15;1.77;;;512.90;2380.80;;;;;;5106404;28;20580;-74
2023/10/25 08:11:37;;;;;;;5.28;1.50;;;512.90;2380.80;;;;;;5103361;28;20052;-73
2023/10/25 08:14:03;;;;;;;14.27;2.05;;;512.90;2380.80;;;;;;5097712;28;20547;-74
2023/10/25 08:16:29;;;;;;;4.32;1.45;;;537.60;2406.40;;;;;;5102034;28;20028;-75
2023/10/25 08:18:55;;;;;;;3.03;1.25;;;537.70;2406.40;;;;;;5094804;28;20027;-74
2023/10/25 08:21:21;;;;;;;5.45;1.92;;;537.70;2406.40;;;;;;5097517;28;20025;-76
2023/10/25 08:23:51;;;;;;;3.85;1.52;;;537.70;2406.40;;;;;;5105523;28;20122;-76
2023/10/25 08:26:18;;;;;;;3.38;1.23;;;537.70;2406.40;;;;;;5101731;28;20016;-76
2023/10/25 08:28:43;;;;;;;5.30;1.23;;;537.60;2406.40;;;;;;5098537;28;20028;-74
2023/10/25 08:31:13;;;;;;;5.95;1.67;;;512.90;2380.80;;;;;;5103905;28;20028;-74
2023/10/25 08:33:39;;;;;;;3.20;1.13;;;512.90;2380.80;;;;;;5095777;28;20409;-74
2023/10/25 08:36:05;;;;;;;4.75;1.30;;;512.80;2380.80;;;;;;5102024;28;20038;-75
2023/10/25 08:38:31;;;;;;;4.88;1.40;;;512.80;2380.80;;;;;;5100873;28;20538;-73
2023/10/25 08:41:07;;;;;;;4.20;1.33;;;512.80;2380.80;;;;;;5098965;28;20025;-75
2023/10/25 08:43:34;;;;;;;7.22;1.80;;;512.80;2380.80;;;;;;5105667;28;20164;-76
2023/10/25 08:46:04;;;;;;;2.50;1.20;;;512.70;2380.80;;;;;;5085260;28;20055;-75
2023/10/25 08:48:30;;;;;;;4.95;1.67;;;512.60;2380.80;;;;;;5073658;28;20508;-73
2023/10/25 08:50:58;;;;;;;3.22;1.20;;;512.50;2380.80;;;;;;5100063;28;20117;-75
2023/10/25 08:53:25;;;;;;;2.53;1.10;;;512.40;2380.80;;;;;;5101009;28;20024;-75
2023/10/25 08:55:55;;;;;;;8.00;1.48;;;512.30;2380.80;;;;;;5108127;28;20423;-75
2023/10/25 08:58:25;;;;;;;3.22;1.27;;;512.40;2380.80;;;;;;5111120;28;20027;-75
2023/10/25 09:00:55;;;;;;;2.80;1.50;;;512.40;2380.80;;;;;;5100845;28;20073;-75
2023/10/25 09:03:32;;;;;;;5.28;1.48;;;512.30;2380.80;;;;;;5107232;28;20032;-77
2023/10/25 09:06:02;;;;;;;2.10;1.10;;;512.30;2380.80;;;;;;5090963;28;20110;-76
2023/10/25 09:08:28;;;;;;;2.60;1.40;;;512.40;2380.80;;;;;;5101828;28;20043;-75
2023/10/25 09:11:05;;;;;;;3.10;1.48;;;512.50;2380.80;;;;;;5095873;28;20387;-74
2023/10/25 09:13:32;;;;;;;7.10;1.50;;;512.60;2380.80;;;;;;5107523;28;20031;-76
2023/10/25 09:16:07;;;;;;;4.32;1.02;;;512.80;2380.80;;;;;;5105294;28;20032;-76
2023/10/25 09:18:34;;;;;;;3.45;1.23;;;512.90;2380.80;;;;;;5099906;28;20501;-76
2023/10/25 09:21:01;;;;;;;6.72;1.60;;;537.60;2406.40;;;;;;5100637;28;20024;-76
2023/10/25 09:23:28;;;;;;;6.22;1.52;;;537.80;2406.40;;;;;;5081387;28;20401;-77
2023/10/25 09:25:58;;;;;;;4.78;1.42;;;537.90;2406.40;;;;;;5079601;28;20028;-76
2023/10/25 09:28:29;;;;;;;5.28;1.55;;;537.90;2406.40;;;;;;5104916;28;20024;-77
2023/10/25 09:31:02;;;;;;;4.63;1.45;;;538.00;2406.40;;;;;;5099128;28;20416;-77
2023/10/25 09:33:28;;;;;;;6.57;1.60;;;538.30;2406.40;;;;;;5102171;28;20388;-77
2023/10/25 09:35:56;;;;;;;1.48;0.80;;;563.30;2432.00;;;;;;5087380;28;20028;-77
2023/10/25 09:38:22;;;;;;;3.42;1.58;;;563.20;2432.00;;;;;;5086857;28;20020;-77
2023/10/25 09:40:49;;;;;;;3.10;1.08;;;563.40;2432.00;;;;;;5090096;28;20594;-77
2023/10/25 09:43:24;;;;;;;3.13;1.58;;;564.00;2432.00;;;;;;5103632;28;20048;-77
2023/10/25 09:45:54;;;;;;;4.93;1.60;;;589.00;2432.00;;;;;;5101389;28;20053;-79
2023/10/25 09:48:21;;;;;;;4.35;1.35;;;564.10;2432.00;;;;;;5087773;28;20042;-79
2023/10/25 09:51:08;;;;;;;3.35;1.95;;;564.10;2432.00;;;;;;5104951;28;20078;-79
2023/10/25 09:53:44;;;;;;;3.90;1.40;;;564.00;2432.00;;;;;;5097905;28;20074;-79
2023/10/25 09:56:11;;;;;;;8.55;1.30;;;564.00;2432.00;;;;;;5109692;28;20031;-78
2023/10/25 09:58:37;;;;;;;3.85;1.58;;;564.00;2432.00;;;;;;5104177;28;20028;-78
2023/10/25 10:01:05;;;;;;;4.80;1.00;;;564.00;2432.00;;;;;;5129583;28;20023;-77
2023/10/25 10:03:42;;;;;;;3.08;1.05;;;563.70;2432.00;;;;;;5111063;28;20032;-76
2023/10/25 10:06:38;;;;;;;2.08;1.20;;;563.70;2432.00;;;;;;5099557;28;20016;-76
2023/10/25 10:09:14;;;;;;;1.98;1.02;;;563.50;2432.00;;;;;;5104722;28;20062;-77
2023/10/25 10:11:45;;;;;;;;;;;564.00;2432.00;;;;;;5096428;28;20034;-78
2023/10/25 10:14:38;;;;;;;3.40;1.30;;;589.10;2432.00;;;;;;5099157;28;20369;-79
2023/10/25 10:17:14;;;;;;;4.18;1.45;;;614.50;2432.00;;;;;;5101848;28;20042;-79
2023/10/25 10:19:44;;;;;;;4.70;0.90;;;;;;;;;;5095735;28;20107;-77
2023/10/25 10:22:13;;;;;;;3.28;1.50;;;;;;;;;;5098269;28;20070;-79
2023/10/25 10:24:40;;;;;;;2.55;1.25;;;;;;;;;;5100146;28;20495;-78
2023/10/25 10:27:06;;;;;;;6.45;1.55;;;;;;;;;;5101632;28;20043;-79
2023/10/25 10:29:33;;;;;;;5.35;1.67;;;;;;;;;;5104550;28;20411;-77
2023/10/25 10:31:59;;;;;;;5.82;2.00;;;;;;;;;;5099773;28;20031;-79
2023/10/25 10:34:57;;;;;;;2.47;1.27;;;665.60;2380.80;;;;;;5100058;28;20142;-79
2023/10/25 10:37:25;;;;;;;4.07;1.10;;;665.60;2329.60;;;;;;5058195;28;20040;-78
2023/10/25 10:39:57;;;;;;;2.40;1.20;;;665.70;2432.00;;;;;;5051286;28;20578;-75
2023/10/25 10:42:25;;;;;;;2.10;0.95;;;640.90;2278.40;;;;;;5051960;28;20045;-74
2023/10/25 10:44:52;;;;;;;1.88;1.00;;;640.90;2278.40;;;;;;5055678;28;20490;-75
2023/10/25 10:47:22;;;;;;;5.20;1.33;;;640.40;2329.60;;;;;;5050054;28;20083;-74
2023/10/25 10:49:56;;;;;;;5.03;1.25;;;640.10;2406.40;;;;;;5050313;28;20048;-75
2023/10/25 10:52:22;;;;;;;3.05;1.33;;;640.00;2355.20;;;;;;5055610;28;20068;-75
2023/10/25 10:54:48;;;;;;;3.13;1.25;;;615.30;2355.20;;;;;;5052396;28;20478;-74
2023/10/25 10:57:16;;;;;;;4.05;1.10;;;640.40;2278.40;;;;;;5052129;28;20063;-75
2023/10/25 10:59:45;;;;;;;2.88;1.25;;;640.50;2252.80;;;;;;5051954;28;20111;-75
2023/10/25 11:02:12;;;;;;;2.80;0.85;;;640.40;2252.80;;;;;;5051972;28;20123;-75
2023/10/25 11:04:42;;;;;;;4.22;1.50;;;615.20;2278.40;;;;;;5051987;28;20108;-74
2023/10/25 11:07:08;;;;;;;3.95;1.38;;;615.30;2304.00;;;;;;5051130;28;20633;-75
2023/10/25 11:09:33;;;;;;;4.05;1.25;;;615.30;2252.80;;;;;;5051226;28;20037;-74
2023/10/25 11:12:15;;;;;;;3.17;1.90;;;640.10;2227.20;;;;;;5051408;28;20479;-74
2023/10/25 11:14:45;;;;;;;3.55;1.23;;;640.50;2201.60;;;;;;5092662;28;20057;-74
2023/10/25 11:17:12;;;;;;;3.53;1.10;;;640.70;2124.80;;;;;;5104085;28;20027;-74
2023/10/25 11:19:38;;;;;;;2.92;1.55;;;640.80;2099.20;;;;;;5094686;28;20035;-75
2023/10/25 11:22:04;;;;;;;2.38;1.20;;;640.70;2073.60;;;;;;5091146;28;20040;-74
2023/10/25 11:24:30;;;;;;;2.67;1.13;;;665.70;2124.80;;;;;;5102926;28;20024;-73
2023/10/25 11:26:56;;;;;;;2.63;1.20;;;665.90;2099.20;;;;;;5106460;28;20111;-73
2023/10/25 11:29:22;;;;;;;4.88;1.55;;;666.20;2099.20;;;;;;5102084;28;20030;-73
2023/10/25 11:31:50;;;;;;;4.35;1.13;;;666.30;2048.00;;;;;;5107792;28;20024;-72
2023/10/25 11:34:21;;;;;;;3.00;1.13;;;666.40;2099.20;;;;;;5096718;28;20481;-73
2023/10/25 11:36:47;;;;;;;2.63;1.10;;;666.20;1996.80;;;;;;5105306;28;20102;-73
2023/10/25 11:39:14;;;;;;;3.88;1.20;;;666.40;2022.40;;;;;;5098158;28;20111;-73
2023/10/25 11:41:40;;;;;;;1.45;0.90;;;666.30;2022.40;;;;;;5095185;28;20035;-73
2023/10/25 11:44:06;;;;;;;2.38;1.10;;;666.20;1996.80;;;;;;5103636;28;20028;-73
2023/10/25 11:46:41;;;;;;;4.65;2.17;;;666.20;1996.80;;;;;;5095826;28;20073;-73
2023/10/25 11:49:07;;;;;;;2.75;1.10;;;666.20;2048.00;;;;;;5096046;28;20032;-73
2023/10/25 11:51:35;;;;;;;1.70;0.93;;;666.20;2022.40;;;;;;5087782;28;20052;-72
2023/10/25 11:54:02;;;;;;;2.95;1.05;;;666.30;1971.20;;;;;;5099947;28;20435;-73
2023/10/25 11:56:28;;;;;;;2.75;1.10;;;666.20;1971.20;;;;;;5094403;28;20051;-73
2023/10/25 11:58:54;;;;;;;3.38;1.30;;;666.00;1971.20;;;;;;5104437;28;20057;-74
2023/10/25 12:01:20;;;;;;;6.38;1.02;;;666.00;1996.80;;;;;;5097470;28;20024;-73
2023/10/25 12:03:46;;;;;;;2.97;1.33;;;666.00;2048.00;;;;;;5102982;28;20032;-75
2023/10/25 12:06:12;;;;;;;2.08;0.93;;;666.00;2022.40;;;;;;5099450;28;20109;-73
2023/10/25 12:08:40;;;;;;;2.78;1.13;;;666.00;1996.80;;;;;;5104653;28;20027;-73
2023/10/25 12:11:10;;;;;;;4.18;1.50;;;665.80;2048.00;;;;;;5095528;28;20028;-72
2023/10/25 12:13:39;;;;;;;2.15;1.13;;;665.80;1971.20;;;;;;5096473;28;20027;-73
2023/10/25 12:16:06;;;;;;;2.42;0.95;;;665.80;1996.80;;;;;;5102675;28;20027;-73